createdAt,value
2018-06-02T00:01:04.905Z,4.77
2018-06-02T00:03:32.355Z,5.17
2018-06-02T00:05:59.816Z,4.83
2018-06-02T00:08:27.265Z,4.97
2018-06-02T00:10:55.489Z,4.73
2018-06-02T00:13:22.932Z,5.37
2018-06-02T00:15:50.397Z,5.30
2018-06-02T00:18:18.608Z,5.50
2018-06-02T00:20:46.100Z,4.83
2018-06-02T00:23:13.600Z,5.40
2018-06-02T00:25:42.564Z,5.50
2018-06-02T00:28:10.005Z,4.80
2018-06-02T00:30:37.893Z,4.87
2018-06-02T00:33:05.340Z,5.13
2018-06-02T00:35:33.665Z,4.77
2018-06-02T00:38:01.131Z,5.23
2018-06-02T00:40:28.580Z,5.03
2018-06-02T00:42:56.027Z,5.20
2018-06-02T00:45:24.257Z,4.70
2018-06-02T00:47:51.785Z,4.80
2018-06-02T00:50:20.013Z,5.03
2018-06-02T00:52:47.461Z,5.20
2018-06-02T00:55:14.916Z,4.90
2018-06-02T00:57:43.169Z,5.13
2018-06-02T01:00:10.675Z,5.40
2018-06-02T01:02:38.093Z,5.60
2018-06-02T01:05:05.548Z,4.80
2018-06-02T01:07:32.996Z,5.43
2018-06-02T01:10:00.466Z,5.23
2018-06-02T01:12:27.912Z,5.50
2018-06-02T01:14:56.140Z,5.33
2018-06-02T01:17:23.588Z,5.57
2018-06-02T01:19:51.048Z,5.00
2018-06-02T01:22:19.267Z,4.80
2018-06-02T01:24:46.726Z,4.77
2018-06-02T01:27:14.173Z,4.97
2018-06-02T01:29:41.625Z,4.90
2018-06-02T01:32:09.845Z,4.67
2018-06-02T01:34:37.309Z,5.20
2018-06-02T01:37:04.768Z,5.20
2018-06-02T01:39:33.016Z,5.00
2018-06-02T01:42:00.461Z,4.50
2018-06-02T01:44:27.910Z,5.47
2018-06-02T01:46:55.465Z,5.40
2018-06-02T01:49:23.867Z,5.80
2018-06-02T01:51:51.337Z,5.50
2018-06-02T01:54:20.348Z,6.13
2018-06-02T01:56:47.805Z,5.50
2018-06-02T01:59:15.273Z,5.80
2018-06-02T02:01:42.741Z,6.07
2018-06-02T02:04:10.189Z,6.00
2018-06-02T02:06:38.413Z,5.60
2018-06-02T02:09:05.893Z,6.40
2018-06-02T02:11:33.357Z,6.33
2018-06-02T02:14:01.012Z,6.23
2018-06-02T02:16:29.220Z,5.70
2018-06-02T02:18:56.665Z,6.20
2018-06-02T02:21:24.160Z,5.53
2018-06-02T02:23:51.717Z,6.27
2018-06-02T02:26:19.195Z,5.70
2018-06-02T02:28:46.658Z,5.97
2018-06-02T02:31:14.117Z,6.50
2018-06-02T02:33:41.569Z,6.17
2018-06-02T02:36:09.796Z,5.63
2018-06-02T02:38:37.240Z,6.33
2018-06-02T02:41:04.725Z,6.27
2018-06-02T02:43:32.173Z,6.47
2018-06-02T02:45:59.628Z,6.20
2018-06-02T02:48:27.941Z,6.87
2018-06-02T02:50:55.401Z,6.80
2018-06-02T02:53:22.845Z,7.07
2018-06-02T02:55:51.117Z,6.93
2018-06-02T02:58:18.569Z,6.87
2018-06-02T03:00:46.037Z,6.67
2018-06-02T03:03:13.605Z,7.80
2018-06-02T03:05:41.064Z,7.93
2018-06-02T03:08:08.517Z,7.83
2018-06-02T03:10:35.972Z,8.40
2018-06-02T03:13:03.429Z,8.67
2018-06-02T03:15:31.657Z,7.77
2018-06-02T03:17:59.108Z,9.10
2018-06-02T03:20:26.568Z,8.57
2018-06-02T03:22:54.091Z,10.10
2018-06-02T03:25:22.364Z,10.10
2018-06-02T03:27:49.805Z,9.67
2018-06-02T03:30:17.268Z,11.23
2018-06-02T03:32:44.720Z,11.00
2018-06-02T03:35:12.187Z,11.37
2018-06-02T03:37:39.639Z,12.30
2018-06-02T03:40:07.852Z,12.03
2018-06-02T03:42:35.316Z,11.70
2018-06-02T03:45:02.769Z,12.17
2018-06-02T03:47:30.996Z,11.63
2018-06-02T03:49:58.437Z,8.30
2018-06-02T03:52:26.686Z,9.03
2018-06-02T03:54:54.152Z,9.00
2018-06-02T03:57:21.612Z,9.50
2018-06-02T03:59:49.055Z,9.97
2018-06-02T04:02:16.519Z,11.60
2018-06-02T04:04:44.093Z,11.93
2018-06-02T04:07:11.562Z,12.43
2018-06-02T04:09:39.011Z,13.10
2018-06-02T04:12:06.492Z,13.93
2018-06-02T04:14:33.931Z,13.30
2018-06-02T04:17:02.168Z,14.23
2018-06-02T04:19:29.615Z,14.30
2018-06-02T04:21:57.475Z,14.60
2018-06-02T04:24:25.932Z,14.73
2018-06-02T04:26:53.396Z,13.87
2018-06-02T04:29:20.846Z,14.17
2018-06-02T04:31:48.306Z,13.83
2018-06-02T04:34:15.757Z,12.93
2018-06-02T04:36:43.220Z,14.50
2018-06-02T04:39:10.683Z,14.77
2018-06-02T04:41:38.192Z,14.63
2018-06-02T04:44:05.651Z,14.40
2018-06-02T04:46:33.107Z,14.77
2018-06-02T04:49:00.561Z,14.07
2018-06-02T04:51:29.619Z,14.50
2018-06-02T04:53:57.261Z,13.07
2018-06-02T04:56:24.784Z,11.47
2018-06-02T04:58:52.307Z,12.67
2018-06-02T05:01:19.767Z,12.57
2018-06-02T05:03:47.272Z,14.77
2018-06-02T05:06:14.736Z,14.87
2018-06-02T05:08:42.180Z,12.43
2018-06-02T05:11:09.664Z,14.47
2018-06-02T05:13:37.116Z,13.10
2018-06-02T05:16:04.576Z,15.43
2018-06-02T05:18:32.248Z,14.10
2018-06-02T05:20:59.753Z,14.40
2018-06-02T05:23:27.151Z,13.47
2018-06-02T05:25:54.611Z,12.17
2018-06-02T05:28:22.900Z,14.87
2018-06-02T05:30:50.355Z,14.23
2018-06-02T05:33:17.816Z,13.63
2018-06-02T05:35:45.284Z,15.03
2018-06-02T05:38:12.730Z,16.63
2018-06-02T05:40:40.232Z,15.20
2018-06-02T05:43:07.819Z,15.60
2018-06-02T05:45:35.268Z,15.90
2018-06-02T05:48:02.735Z,15.60
2018-06-02T05:50:30.187Z,15.37
2018-06-02T05:52:57.648Z,15.20
2018-06-02T05:55:25.123Z,15.77
2018-06-02T06:00:27.388Z,13.80
2018-06-02T06:02:55.700Z,12.70
2018-06-02T06:05:23.146Z,12.20
2018-06-02T06:07:51.411Z,13.03
2018-06-02T06:10:18.899Z,11.17
2018-06-02T06:12:46.676Z,10.03
2018-06-02T06:15:14.913Z,10.03
2018-06-02T06:17:42.371Z,10.67
2018-06-02T06:20:09.828Z,10.47
2018-06-02T06:22:37.287Z,9.90
2018-06-02T06:25:05.629Z,9.60
2018-06-02T06:27:33.085Z,8.50
2018-06-02T06:30:00.524Z,9.03
2018-06-02T06:32:27.983Z,9.03
2018-06-02T06:34:56.196Z,8.40
2018-06-02T06:37:23.657Z,9.10
2018-06-02T06:39:51.868Z,8.53
2018-06-02T06:42:19.314Z,8.27
2018-06-02T06:44:46.836Z,9.60
2018-06-02T06:47:14.976Z,8.53
2018-06-02T06:49:42.488Z,7.57
2018-06-02T06:52:09.940Z,8.47
2018-06-02T06:54:37.380Z,7.83
2018-06-02T06:57:04.838Z,8.40
2018-06-02T06:59:32.280Z,7.50
2018-06-02T07:02:00.512Z,6.17
2018-06-02T07:04:27.961Z,6.67
2018-06-02T07:06:55.417Z,6.37
2018-06-02T07:09:23.653Z,6.87
2018-06-02T07:11:51.243Z,5.70
2018-06-02T07:14:18.543Z,6.90
2018-06-02T07:16:46.021Z,6.37
2018-06-02T07:19:13.460Z,5.90
2018-06-02T07:21:41.692Z,6.17
2018-06-02T07:24:09.268Z,6.23
2018-06-02T07:26:36.740Z,5.43
2018-06-02T07:29:04.167Z,7.23
2018-06-02T07:31:32.410Z,6.50
2018-06-02T07:33:59.875Z,5.57
2018-06-02T07:36:27.332Z,5.63
2018-06-02T07:38:54.780Z,5.70
2018-06-02T07:41:22.330Z,6.50
2018-06-02T07:43:50.761Z,6.53
2018-06-02T07:46:18.224Z,5.87
2018-06-02T07:48:45.681Z,4.70
2018-06-02T07:51:13.887Z,5.13
2018-06-02T07:53:41.328Z,4.80
2018-06-02T07:56:08.767Z,5.50
2018-06-02T07:58:36.224Z,6.00
2018-06-02T08:01:03.664Z,5.70
2018-06-02T08:03:31.124Z,5.40
2018-06-02T08:05:58.564Z,5.37
2018-06-02T08:08:26.799Z,4.80
2018-06-02T08:10:54.229Z,5.83
2018-06-02T08:13:21.811Z,5.90
2018-06-02T08:15:49.316Z,5.77
2018-06-02T08:18:16.777Z,5.50
2018-06-02T08:20:44.234Z,5.50
2018-06-02T08:23:11.681Z,6.30
2018-06-02T08:25:39.120Z,6.27
2018-06-02T08:28:07.344Z,5.13
2018-06-02T08:30:34.792Z,5.23
2018-06-02T08:33:03.008Z,5.73
2018-06-02T08:35:30.448Z,5.20
2018-06-02T08:37:57.899Z,4.40
2018-06-02T08:40:26.116Z,4.63
2018-06-02T08:42:53.573Z,5.87
2018-06-02T08:45:21.785Z,5.00
2018-06-02T08:47:49.237Z,4.70
2018-06-02T08:50:16.704Z,4.17
2018-06-02T08:52:44.159Z,4.87
2018-06-02T08:55:12.368Z,3.97
2018-06-02T08:57:39.828Z,4.20
2018-06-02T09:00:07.267Z,3.90
2018-06-02T09:02:34.727Z,3.83
2018-06-02T09:05:02.169Z,3.33
2018-06-02T09:07:29.623Z,3.90
2018-06-02T09:09:57.395Z,3.60
2018-06-02T09:12:24.888Z,3.43
2018-06-02T09:14:52.328Z,3.30
2018-06-02T09:17:19.788Z,3.50
2018-06-02T09:19:47.244Z,2.97
2018-06-02T09:22:15.588Z,3.70
2018-06-02T09:24:43.036Z,3.83
2018-06-02T09:27:10.591Z,3.70
2018-06-02T09:29:38.039Z,3.53
2018-06-02T09:32:06.261Z,3.50
2018-06-02T09:34:33.703Z,3.67
2018-06-02T09:37:01.184Z,3.63
2018-06-02T09:39:28.628Z,3.43
2018-06-02T09:41:56.860Z,2.90
2018-06-02T09:44:24.304Z,3.40
2018-06-02T09:46:51.783Z,3.73
2018-06-02T09:49:19.232Z,3.70
2018-06-02T09:51:46.696Z,3.30
2018-06-02T09:54:14.908Z,3.10
2018-06-02T09:56:42.365Z,3.20
2018-06-02T09:59:09.807Z,3.57
2018-06-02T10:01:38.024Z,3.70
2018-06-02T10:04:05.491Z,3.43
2018-06-02T10:06:32.933Z,3.60
2018-06-02T10:09:00.426Z,3.20
2018-06-02T10:11:27.899Z,3.13
2018-06-02T10:13:55.356Z,3.20
2018-06-02T10:16:22.800Z,2.90
2018-06-02T10:18:51.040Z,2.60
2018-06-02T10:21:18.507Z,3.40
2018-06-02T10:23:45.959Z,3.67
2018-06-02T10:26:13.423Z,3.63
2018-06-02T10:28:40.914Z,3.60
2018-06-02T10:31:08.352Z,3.07
2018-06-02T10:33:36.708Z,3.20
2018-06-02T10:36:04.203Z,3.10
2018-06-02T10:38:31.643Z,2.90
2018-06-02T10:40:59.091Z,2.87
2018-06-02T10:43:26.551Z,2.90
2018-06-02T10:45:54.001Z,2.60
2018-06-02T10:48:21.456Z,2.40
2018-06-02T10:50:48.900Z,2.97
2018-06-02T10:53:16.436Z,3.03
2018-06-02T10:55:43.884Z,3.03
2018-06-02T10:58:11.335Z,2.70
2018-06-02T11:00:38.784Z,2.90
2018-06-02T11:03:06.231Z,2.57
2018-06-02T11:05:33.670Z,2.70
2018-06-02T11:08:01.125Z,2.40
2018-06-02T11:10:28.695Z,2.90
2018-06-02T11:12:56.158Z,2.70
2018-06-02T11:15:23.638Z,2.60
2018-06-02T11:17:51.743Z,2.93
2018-06-02T11:20:19.208Z,3.03
2018-06-02T11:22:46.675Z,2.80
2018-06-02T11:25:14.110Z,2.90
2018-06-02T11:27:41.571Z,2.50
2018-06-02T11:30:09.788Z,2.70
2018-06-02T11:32:37.311Z,2.63
2018-06-02T11:35:04.935Z,3.00
2018-06-02T11:37:32.387Z,2.70
2018-06-02T11:39:59.831Z,2.80
2018-06-02T11:42:28.184Z,2.67
2018-06-02T11:44:55.605Z,2.70
2018-06-02T11:47:23.060Z,3.50
2018-06-02T11:49:51.304Z,2.90
2018-06-02T11:52:18.764Z,2.40
2018-06-02T11:54:46.208Z,3.03
2018-06-02T11:57:13.758Z,2.87
2018-06-02T11:59:42.028Z,2.77
2018-06-02T12:02:09.436Z,2.77
2018-06-02T12:04:36.879Z,3.10
2018-06-02T12:07:05.087Z,3.07
2018-06-02T12:09:32.544Z,3.07
2018-06-02T12:12:00.760Z,2.70
2018-06-02T12:14:28.208Z,2.93
2018-06-02T12:16:55.651Z,3.00
2018-06-02T12:19:23.880Z,2.60
2018-06-02T12:21:51.315Z,3.10
2018-06-02T12:24:19.539Z,2.37
2018-06-02T12:26:46.987Z,2.90
2018-06-02T12:29:15.316Z,3.10
2018-06-02T12:31:42.776Z,2.80
2018-06-02T12:34:10.280Z,2.77
2018-06-02T12:36:37.716Z,2.80
2018-06-02T12:39:05.384Z,4.17
2018-06-02T12:41:32.871Z,3.47
2018-06-02T12:44:00.299Z,2.80
2018-06-02T12:46:27.748Z,2.80
2018-06-02T12:48:55.999Z,2.57
2018-06-02T12:51:23.453Z,2.50
2018-06-02T12:53:50.920Z,2.80
2018-06-02T12:56:18.359Z,2.87
2018-06-02T12:58:45.823Z,2.67
2018-06-02T13:01:13.263Z,2.70
2018-06-02T13:03:40.719Z,3.00
2018-06-02T13:06:08.167Z,3.00
2018-06-02T13:08:35.624Z,3.10
2018-06-02T13:11:03.176Z,3.00
2018-06-02T13:13:30.627Z,3.13
2018-06-02T13:15:58.840Z,2.87
2018-06-02T13:18:26.306Z,2.90
2018-06-02T13:20:53.753Z,2.73
2018-06-02T13:23:21.981Z,2.80
2018-06-02T13:25:49.428Z,3.23
2018-06-02T13:28:16.884Z,2.87
2018-06-02T13:30:44.330Z,2.70
2018-06-02T13:33:11.784Z,2.80
2018-06-02T13:35:39.250Z,3.10
2018-06-02T13:38:06.766Z,4.37
2018-06-02T13:40:34.277Z,3.03
2018-06-02T13:43:01.738Z,2.77
2018-06-02T13:45:29.192Z,2.57
2018-06-02T13:47:56.640Z,2.70
2018-06-02T13:50:24.079Z,2.77
2018-06-02T13:52:52.321Z,3.17
2018-06-02T13:55:19.759Z,2.70
2018-06-02T13:57:47.216Z,2.97
2018-06-02T14:00:15.431Z,3.30
2018-06-02T14:02:42.884Z,3.00
2018-06-02T14:05:10.328Z,2.97
2018-06-02T14:07:38.580Z,2.87
2018-06-02T14:10:06.031Z,3.27
2018-06-02T14:12:33.504Z,2.70
2018-06-02T14:15:01.693Z,3.20
2018-06-02T14:17:29.181Z,2.97
2018-06-02T14:19:56.648Z,3.00
2018-06-02T14:22:24.091Z,3.20
2018-06-02T14:24:51.559Z,2.83
2018-06-02T14:27:19.016Z,3.27
2018-06-02T14:29:46.468Z,3.07
2018-06-02T14:32:14.675Z,2.93
2018-06-02T14:34:42.208Z,3.00
2018-06-02T14:37:09.703Z,3.00
2018-06-02T14:39:37.107Z,3.03
2018-06-02T14:42:04.556Z,3.57
2018-06-02T14:44:32.012Z,3.20
2018-06-02T14:46:59.575Z,3.10
2018-06-02T14:49:27.044Z,3.10
2018-06-02T14:51:55.241Z,3.17
2018-06-02T14:54:22.795Z,3.20
2018-06-02T14:56:50.398Z,3.13
2018-06-02T14:59:17.864Z,3.17
2018-06-02T15:01:45.328Z,2.87
2018-06-02T15:04:12.785Z,3.00
2018-06-02T15:06:40.233Z,3.03
2018-06-02T15:09:08.457Z,3.47
2018-06-02T15:11:35.904Z,3.83
2018-06-02T15:14:03.389Z,3.23
2018-06-02T15:16:30.836Z,3.03
2018-06-02T15:18:59.056Z,3.30
2018-06-02T15:21:26.521Z,3.53
2018-06-02T15:23:53.964Z,3.20
2018-06-02T15:26:21.408Z,3.67
2018-06-02T15:28:48.867Z,3.40
2018-06-02T15:31:16.352Z,3.43
2018-06-02T15:33:43.779Z,3.47
2018-06-02T15:36:11.223Z,3.07
2018-06-02T15:38:38.792Z,3.17
2018-06-02T15:41:06.247Z,2.87
2018-06-02T15:43:34.462Z,2.60
2018-06-02T15:46:01.906Z,2.60
2018-06-02T15:48:29.360Z,3.20
2018-06-02T15:50:57.573Z,2.73
2018-06-02T15:53:25.037Z,2.90
2018-06-02T15:55:52.480Z,2.73
2018-06-02T15:58:20.700Z,3.03
2018-06-02T16:00:48.147Z,2.87
2018-06-02T16:03:16.580Z,2.60
2018-06-02T16:05:44.229Z,2.60
2018-06-02T16:08:12.440Z,2.50
2018-06-02T16:10:39.903Z,2.40
2018-06-02T16:13:07.353Z,2.33
2018-06-02T16:15:34.804Z,2.20
2018-06-02T16:18:03.134Z,2.30
2018-06-02T16:20:30.608Z,2.50
2018-06-02T16:22:58.056Z,2.47
2018-06-02T16:25:25.512Z,2.40
2018-06-02T16:27:53.736Z,2.17
2018-06-02T16:30:21.201Z,2.40
2018-06-02T16:32:49.659Z,2.40
2018-06-02T16:35:17.117Z,2.27
2018-06-02T16:37:45.332Z,2.23
2018-06-02T16:40:12.814Z,2.70
2018-06-02T16:42:40.236Z,2.27
2018-06-02T16:45:08.457Z,2.73
2018-06-02T16:47:35.898Z,2.57
2018-06-02T16:50:04.129Z,3.00
2018-06-02T16:52:31.563Z,2.73
2018-06-02T16:54:59.065Z,3.40
2018-06-02T16:57:26.516Z,2.70
2018-06-02T16:59:53.975Z,2.80
2018-06-02T17:02:21.432Z,2.80
2018-06-02T17:04:48.892Z,2.50
2018-06-02T17:07:17.931Z,3.07
2018-06-02T17:09:45.387Z,2.90
2018-06-02T17:12:12.822Z,3.37
2018-06-02T17:14:41.112Z,2.80
2018-06-02T17:17:09.328Z,2.80
2018-06-02T17:19:36.788Z,3.37
2018-06-02T17:22:05.003Z,2.90
2018-06-02T17:24:32.456Z,2.87
2018-06-02T17:26:59.937Z,2.67
2018-06-02T17:29:27.424Z,2.97
2018-06-02T17:31:55.684Z,3.00
2018-06-02T17:34:23.187Z,3.10
2018-06-02T17:36:50.668Z,3.07
2018-06-02T17:39:18.103Z,3.00
2018-06-02T17:41:45.575Z,3.33
2018-06-02T17:44:13.024Z,3.10
2018-06-02T17:46:40.467Z,2.90
2018-06-02T17:49:08.714Z,2.80
2018-06-02T17:51:36.213Z,2.70
2018-06-02T17:54:03.617Z,2.90
2018-06-02T17:56:31.060Z,2.80
2018-06-02T17:58:58.514Z,2.93
2018-06-02T18:01:26.128Z,2.67
2018-06-02T18:03:54.331Z,3.00
2018-06-02T18:06:21.832Z,2.90
2018-06-02T18:08:49.341Z,2.93
2018-06-02T18:11:16.788Z,2.80
2018-06-02T18:13:44.244Z,2.80
2018-06-02T18:16:11.692Z,2.70
2018-06-02T18:18:39.172Z,3.20
2018-06-02T18:21:06.629Z,2.93
2018-06-02T18:23:34.420Z,2.60
2018-06-02T18:26:01.876Z,3.00
2018-06-02T18:28:29.329Z,2.80
2018-06-02T18:30:56.796Z,2.70
2018-06-02T18:33:24.232Z,3.60
2018-06-02T18:35:52.459Z,2.83
2018-06-02T18:38:20.006Z,2.80
2018-06-02T18:40:48.208Z,2.63
2018-06-02T18:43:15.652Z,2.80
2018-06-02T18:45:43.117Z,2.60
2018-06-02T18:48:11.324Z,2.53
2018-06-02T18:50:38.781Z,2.67
2018-06-02T18:53:06.232Z,3.27
2018-06-02T18:55:33.699Z,3.03
2018-06-02T18:58:01.926Z,2.83
2018-06-02T19:00:29.367Z,2.93
2018-06-02T19:02:56.811Z,2.93
2018-06-02T19:05:25.037Z,3.10
2018-06-02T19:07:52.911Z,3.40
2018-06-02T19:10:20.423Z,3.40
2018-06-02T19:12:47.880Z,3.13
2018-06-02T19:15:15.346Z,2.93
2018-06-02T19:17:42.779Z,3.10
2018-06-02T19:20:10.236Z,3.27
2018-06-02T19:22:38.496Z,2.90
2018-06-02T19:25:05.899Z,2.73
2018-06-02T19:27:33.366Z,3.00
2018-06-02T19:30:01.614Z,3.30
2018-06-02T19:32:29.043Z,2.60
2018-06-02T19:34:56.531Z,2.80
2018-06-02T19:37:23.955Z,2.90
2018-06-02T19:39:52.180Z,3.10
2018-06-02T19:42:19.628Z,2.93
2018-06-02T19:44:47.087Z,3.00
2018-06-02T19:47:14.528Z,3.13
2018-06-02T19:49:44.188Z,3.10
2018-06-02T19:52:14.260Z,3.30
2018-06-02T19:54:42.555Z,3.40
2018-06-02T19:57:10.833Z,2.97
2018-06-02T19:59:38.282Z,3.17
2018-06-02T20:02:05.775Z,3.47
2018-06-02T20:04:33.227Z,3.30
2018-06-02T20:07:00.686Z,3.00
2018-06-02T20:09:28.144Z,3.07
2018-06-02T20:11:55.588Z,3.33
2018-06-02T20:14:23.808Z,3.20
2018-06-02T20:16:51.252Z,3.40
2018-06-02T20:19:18.720Z,3.33
2018-06-02T20:21:47.451Z,3.50
2018-06-02T20:24:14.903Z,3.33
2018-06-02T20:26:42.369Z,3.27
2018-06-02T20:29:09.828Z,3.20
2018-06-02T20:31:37.278Z,3.27
2018-06-02T20:34:05.483Z,3.03
2018-06-02T20:36:32.940Z,3.80
2018-06-02T20:39:01.152Z,5.13
2018-06-02T20:41:29.425Z,3.70
2018-06-02T20:43:56.876Z,3.90
2018-06-02T20:46:25.112Z,3.60
2018-06-02T20:48:52.550Z,3.33
2018-06-02T20:51:20.040Z,3.40
2018-06-02T20:53:47.525Z,3.07
2018-06-02T20:56:14.960Z,3.50
2018-06-02T20:58:42.403Z,3.70
2018-06-02T21:01:09.851Z,3.53
2018-06-02T21:03:38.799Z,3.30
2018-06-02T21:06:06.264Z,3.40
2018-06-02T21:08:34.667Z,3.37
2018-06-02T21:11:02.126Z,3.23
2018-06-02T21:13:29.572Z,3.37
2018-06-02T21:15:57.800Z,3.07
2018-06-02T21:18:25.271Z,3.23
2018-06-02T21:20:52.727Z,3.20
2018-06-02T21:23:20.167Z,3.33
2018-06-02T21:25:48.391Z,3.30
2018-06-02T21:28:15.880Z,3.80
2018-06-02T21:30:43.355Z,3.80
2018-06-02T21:33:10.807Z,3.63
2018-06-02T21:35:38.263Z,3.83
2018-06-02T21:38:05.716Z,4.10
2018-06-02T21:40:33.941Z,3.97
